sensor_id;sensor_type;location;lat;lon;timestamp;pressure;altitude;pressure_sealevel;temperature;humidity
71384;BME280;67558;52.166;5.004;2024-01-11T00:00:10;103371.47;;;22.26;24.85
71384;BME280;67558;52.166;5.004;2024-01-11T00:02:35;103374.19;;;22.21;24.92
71384;BME280;67558;52.166;5.004;2024-01-11T00:05:00;103374.75;;;22.23;25.02
71384;BME280;67558;52.166;5.004;2024-01-11T00:07:26;103371.72;;;22.20;25.24
71384;BME280;67558;52.166;5.004;2024-01-11T00:09:52;103375.38;;;22.05;25.09
71384;BME280;67558;52.166;5.004;2024-01-11T00:12:17;103367.59;;;22.33;24.70
71384;BME280;67558;52.166;5.004;2024-01-11T00:14:42;103367.75;;;22.02;25.35
71384;BME280;67558;52.166;5.004;2024-01-11T00:17:08;103372.69;;;22.00;25.11
71384;BME280;67558;52.166;5.004;2024-01-11T00:19:33;103382.19;;;22.07;25.11
71384;BME280;67558;52.166;5.004;2024-01-11T00:21:58;103378.34;;;22.08;24.79
71384;BME280;67558;52.166;5.004;2024-01-11T00:24:24;103367.97;;;22.16;24.81
71384;BME280;67558;52.166;5.004;2024-01-11T00:26:49;103376.22;;;22.00;25.18
71384;BME280;67558;52.166;5.004;2024-01-11T00:29:14;103369.41;;;22.03;25.04
71384;BME280;67558;52.166;5.004;2024-01-11T00:31:40;103361.00;;;21.94;25.23
71384;BME280;67558;52.166;5.004;2024-01-11T00:34:05;103366.16;;;22.01;24.97
71384;BME280;67558;52.166;5.004;2024-01-11T00:36:30;103367.19;;;22.10;24.75
71384;BME280;67558;52.166;5.004;2024-01-11T00:38:58;103369.09;;;22.04;25.25
71384;BME280;67558;52.166;5.004;2024-01-11T00:41:23;103368.34;;;21.99;25.19
71384;BME280;67558;52.166;5.004;2024-01-11T00:43:48;103375.03;;;22.17;25.06
71384;BME280;67558;52.166;5.004;2024-01-11T00:46:14;103360.69;;;22.01;25.10
71384;BME280;67558;52.166;5.004;2024-01-11T00:48:39;103369.69;;;22.01;24.63
71384;BME280;67558;52.166;5.004;2024-01-11T00:51:05;103374.25;;;22.11;24.78
71384;BME280;67558;52.166;5.004;2024-01-11T00:53:30;103374.56;;;22.04;24.59
71384;BME280;67558;52.166;5.004;2024-01-11T00:55:57;103360.25;;;21.83;24.90
71384;BME280;67558;52.166;5.004;2024-01-11T00:58:22;103361.59;;;21.86;25.06
71384;BME280;67558;52.166;5.004;2024-01-11T01:00:48;103361.06;;;21.79;24.89
71384;BME280;67558;52.166;5.004;2024-01-11T01:03:14;103365.97;;;21.82;25.16
71384;BME280;67558;52.166;5.004;2024-01-11T01:05:41;103370.66;;;21.71;25.13
71384;BME280;67558;52.166;5.004;2024-01-11T01:08:06;103369.16;;;21.99;25.01
71384;BME280;67558;52.166;5.004;2024-01-11T01:10:32;103364.84;;;21.83;25.10
71384;BME280;67558;52.166;5.004;2024-01-11T01:12:57;103374.16;;;21.77;25.09
71384;BME280;67558;52.166;5.004;2024-01-11T01:15:22;103386.16;;;21.76;25.12
71384;BME280;67558;52.166;5.004;2024-01-11T01:17:48;103384.81;;;21.73;24.63
71384;BME280;67558;52.166;5.004;2024-01-11T01:20:13;103380.75;;;21.65;25.34
71384;BME280;67558;52.166;5.004;2024-01-11T01:22:39;103385.41;;;21.60;24.97
71384;BME280;67558;52.166;5.004;2024-01-11T01:25:05;103387.78;;;21.77;24.93
71384;BME280;67558;52.166;5.004;2024-01-11T01:27:30;103382.88;;;21.74;24.79
71384;BME280;67558;52.166;5.004;2024-01-11T01:29:56;103390.78;;;21.70;24.93
71384;BME280;67558;52.166;5.004;2024-01-11T01:32:21;103388.09;;;21.65;25.23
71384;BME280;67558;52.166;5.004;2024-01-11T01:34:46;103398.47;;;21.53;25.08
71384;BME280;67558;52.166;5.004;2024-01-11T01:37:12;103396.88;;;21.41;24.96
71384;BME280;67558;52.166;5.004;2024-01-11T01:39:38;103399.34;;;21.43;25.31
71384;BME280;67558;52.166;5.004;2024-01-11T01:42:04;103386.25;;;21.35;25.08
71384;BME280;67558;52.166;5.004;2024-01-11T01:44:29;103389.81;;;21.30;24.95
71384;BME280;67558;52.166;5.004;2024-01-11T01:46:55;103391.97;;;21.43;25.30
71384;BME280;67558;52.166;5.004;2024-01-11T01:49:21;103391.44;;;21.31;25.17
71384;BME280;67558;52.166;5.004;2024-01-11T01:51:47;103390.88;;;21.39;25.04
71384;BME280;67558;52.166;5.004;2024-01-11T01:54:13;103393.91;;;21.27;25.43
71384;BME280;67558;52.166;5.004;2024-01-11T01:56:39;103390.34;;;21.32;25.29
71384;BME280;67558;52.166;5.004;2024-01-11T01:59:05;103398.75;;;21.36;24.84
71384;BME280;67558;52.166;5.004;2024-01-11T02:01:31;103401.50;;;21.41;25.06
71384;BME280;67558;52.166;5.004;2024-01-11T02:03:57;103393.38;;;21.25;25.33
71384;BME280;67558;52.166;5.004;2024-01-11T02:06:25;103391.72;;;21.30;25.17
71384;BME280;67558;52.166;5.004;2024-01-11T02:08:54;103402.59;;;21.35;24.85
71384;BME280;67558;52.166;5.004;2024-01-11T02:11:21;103402.63;;;21.30;25.02
71384;BME280;67558;52.166;5.004;2024-01-11T02:13:49;103403.72;;;21.23;25.08
71384;BME280;67558;52.166;5.004;2024-01-11T02:16:15;103399.59;;;21.31;25.14
71384;BME280;67558;52.166;5.004;2024-01-11T02:18:40;103412.69;;;21.24;24.91
71384;BME280;67558;52.166;5.004;2024-01-11T02:21:09;103410.25;;;21.27;24.85
71384;BME280;67558;52.166;5.004;2024-01-11T02:23:36;103415.69;;;21.17;25.14
71384;BME280;67558;52.166;5.004;2024-01-11T02:26:05;103414.59;;;21.13;25.29
71384;BME280;67558;52.166;5.004;2024-01-11T02:28:30;103410.28;;;21.02;25.03
71384;BME280;67558;52.166;5.004;2024-01-11T02:30:56;103409.69;;;21.25;24.87
71384;BME280;67558;52.166;5.004;2024-01-11T02:33:21;103402.38;;;21.11;25.18
71384;BME280;67558;52.166;5.004;2024-01-11T02:35:48;103396.91;;;21.05;25.37
71384;BME280;67558;52.166;5.004;2024-01-11T02:38:13;103401.53;;;21.05;25.11
71384;BME280;67558;52.166;5.004;2024-01-11T02:40:40;103398.53;;;21.22;24.67
71384;BME280;67558;52.166;5.004;2024-01-11T02:43:09;103399.94;;;21.04;25.05
71384;BME280;67558;52.166;5.004;2024-01-11T02:45:35;103399.66;;;20.95;25.26
71384;BME280;67558;52.166;5.004;2024-01-11T02:48:01;103396.66;;;20.92;24.96
71384;BME280;67558;52.166;5.004;2024-01-11T02:50:26;103411.34;;;21.06;25.08
71384;BME280;67558;52.166;5.004;2024-01-11T02:52:51;103404.28;;;21.05;25.12
71384;BME280;67558;52.166;5.004;2024-01-11T02:55:17;103409.72;;;21.05;25.17
71384;BME280;67558;52.166;5.004;2024-01-11T02:57:42;103409.16;;;20.93;24.90
71384;BME280;67558;52.166;5.004;2024-01-11T03:00:08;103400.75;;;20.99;24.98
71384;BME280;67558;52.166;5.004;2024-01-11T03:02:33;103396.66;;;21.02;25.18
71384;BME280;67558;52.166;5.004;2024-01-11T03:04:58;103393.13;;;20.91;24.86
71384;BME280;67558;52.166;5.004;2024-01-11T03:07:24;103400.47;;;20.91;24.83
71384;BME280;67558;52.166;5.004;2024-01-11T03:09:49;103406.19;;;20.89;25.04
71384;BME280;67558;52.166;5.004;2024-01-11T03:12:14;103400.47;;;20.96;25.09
71384;BME280;67558;52.166;5.004;2024-01-11T03:14:40;103397.75;;;21.06;25.03
71384;BME280;67558;52.166;5.004;2024-01-11T03:17:05;103398.84;;;20.84;24.96
71384;BME280;67558;52.166;5.004;2024-01-11T03:19:30;103400.47;;;20.80;24.90
71384;BME280;67558;52.166;5.004;2024-01-11T03:21:56;103411.38;;;20.80;25.21
71384;BME280;67558;52.166;5.004;2024-01-11T03:24:21;103413.81;;;20.97;24.69
71384;BME280;67558;52.166;5.004;2024-01-11T03:26:47;103414.63;;;20.88;25.30
71384;BME280;67558;52.166;5.004;2024-01-11T03:29:13;103423.31;;;20.79;25.06
71384;BME280;67558;52.166;5.004;2024-01-11T03:31:38;103418.69;;;20.90;25.10
71384;BME280;67558;52.166;5.004;2024-01-11T03:34:07;103409.44;;;20.71;25.17
71384;BME280;67558;52.166;5.004;2024-01-11T03:36:33;103420.31;;;20.71;25.02
71384;BME280;67558;52.166;5.004;2024-01-11T03:38:58;103411.09;;;20.87;24.83
71384;BME280;67558;52.166;5.004;2024-01-11T03:41:23;103410.78;;;20.73;24.88
71384;BME280;67558;52.166;5.004;2024-01-11T03:43:49;103415.16;;;20.74;24.99
71384;BME280;67558;52.166;5.004;2024-01-11T03:46:15;103415.97;;;20.59;25.23
71384;BME280;67558;52.166;5.004;2024-01-11T03:48:40;103418.97;;;20.68;24.89
71384;BME280;67558;52.166;5.004;2024-01-11T03:51:06;103418.97;;;20.63;25.47
71384;BME280;67558;52.166;5.004;2024-01-11T03:53:34;103423.03;;;20.71;24.76
71384;BME280;67558;52.166;5.004;2024-01-11T03:56:00;103416.25;;;20.68;25.24
71384;BME280;67558;52.166;5.004;2024-01-11T03:58:26;103404.25;;;20.69;24.86
71384;BME280;67558;52.166;5.004;2024-01-11T04:00:51;103411.06;;;20.66;24.75
71384;BME280;67558;52.166;5.004;2024-01-11T04:03:17;103404.56;;;20.68;25.06
71384;BME280;67558;52.166;5.004;2024-01-11T04:05:42;103410.53;;;20.64;24.99
71384;BME280;67558;52.166;5.004;2024-01-11T04:08:07;103424.91;;;20.55;25.01
71384;BME280;67558;52.166;5.004;2024-01-11T04:10:33;103436.34;;;20.57;25.20
71384;BME280;67558;52.166;5.004;2024-01-11T04:12:58;103427.63;;;20.55;25.13
71384;BME280;67558;52.166;5.004;2024-01-11T04:15:24;103433.34;;;20.58;24.89
71384;BME280;67558;52.166;5.004;2024-01-11T04:17:49;103436.03;;;20.53;25.01
71384;BME280;67558;52.166;5.004;2024-01-11T04:20:14;103437.97;;;20.58;24.95
71384;BME280;67558;52.166;5.004;2024-01-11T04:22:40;103439.03;;;20.52;24.98
71384;BME280;67558;52.166;5.004;2024-01-11T04:25:06;103442.81;;;20.40;25.21
71384;BME280;67558;52.166;5.004;2024-01-11T04:27:31;103446.06;;;20.48;25.21
71384;BME280;67558;52.166;5.004;2024-01-11T04:29:56;103446.09;;;20.53;24.99
71384;BME280;67558;52.166;5.004;2024-01-11T04:32:22;103441.44;;;20.43;25.23
71384;BME280;67558;52.166;5.004;2024-01-11T04:34:47;103442.03;;;20.50;25.00
71384;BME280;67558;52.166;5.004;2024-01-11T04:37:12;103452.84;;;20.30;25.24
71384;BME280;67558;52.166;5.004;2024-01-11T04:39:38;103466.22;;;20.46;24.94
71384;BME280;67558;52.166;5.004;2024-01-11T04:42:03;103459.66;;;20.48;25.14
71384;BME280;67558;52.166;5.004;2024-01-11T04:44:29;103452.09;;;20.55;24.91
71384;BME280;67558;52.166;5.004;2024-01-11T04:46:54;103459.97;;;20.56;24.93
71384;BME280;67558;52.166;5.004;2024-01-11T04:49:19;103455.94;;;20.59;24.68
71384;BME280;67558;52.166;5.004;2024-01-11T04:51:45;103464.91;;;20.64;24.57
71384;BME280;67558;52.166;5.004;2024-01-11T04:54:10;103461.06;;;20.50;24.72
71384;BME280;67558;52.166;5.004;2024-01-11T04:56:35;103462.22;;;20.70;24.60
71384;BME280;67558;52.166;5.004;2024-01-11T04:59:01;103469.22;;;20.50;24.85
71384;BME280;67558;52.166;5.004;2024-01-11T05:01:26;103458.66;;;20.64;24.44
71384;BME280;67558;52.166;5.004;2024-01-11T05:03:51;103470.63;;;20.68;24.70
71384;BME280;67558;52.166;5.004;2024-01-11T05:06:18;103448.59;;;20.64;24.42
71384;BME280;67558;52.166;5.004;2024-01-11T05:08:44;103460.03;;;20.61;24.42
71384;BME280;67558;52.166;5.004;2024-01-11T05:11:20;103463.81;;;20.60;24.15
71384;BME280;67558;52.166;5.004;2024-01-11T05:13:46;103451.06;;;20.61;24.30
71384;BME280;67558;52.166;5.004;2024-01-11T05:16:18;103439.38;;;20.65;24.44
71384;BME280;67558;52.166;5.004;2024-01-11T05:18:44;103443.69;;;20.66;24.49
71384;BME280;67558;52.166;5.004;2024-01-11T05:21:09;103450.25;;;20.65;24.41
71384;BME280;67558;52.166;5.004;2024-01-11T05:23:34;103444.28;;;20.74;24.22
71384;BME280;67558;52.166;5.004;2024-01-11T05:26:00;103450.22;;;20.71;24.22
71384;BME280;67558;52.166;5.004;2024-01-11T05:28:25;103447.00;;;20.74;24.11
71384;BME280;67558;52.166;5.004;2024-01-11T05:30:50;103446.66;;;20.55;24.49
71384;BME280;67558;52.166;5.004;2024-01-11T05:33:16;103455.41;;;20.72;24.15
71384;BME280;67558;52.166;5.004;2024-01-11T05:35:41;103446.16;;;20.73;24.25
71384;BME280;67558;52.166;5.004;2024-01-11T05:38:06;103457.59;;;20.75;24.36
71384;BME280;67558;52.166;5.004;2024-01-11T05:40:32;103446.69;;;20.75;24.40
71384;BME280;67558;52.166;5.004;2024-01-11T05:42:57;103434.19;;;20.79;24.27
71384;BME280;67558;52.166;5.004;2024-01-11T05:45:22;103427.41;;;20.72;24.12
71384;BME280;67558;52.166;5.004;2024-01-11T05:47:48;103424.94;;;20.75;24.36
71384;BME280;67558;52.166;5.004;2024-01-11T05:50:14;103435.56;;;20.87;24.20
71384;BME280;67558;52.166;5.004;2024-01-11T05:52:39;103461.41;;;20.79;24.19
71384;BME280;67558;52.166;5.004;2024-01-11T05:55:05;103460.31;;;20.75;24.39
71384;BME280;67558;52.166;5.004;2024-01-11T05:57:30;103452.69;;;20.77;24.28
71384;BME280;67558;52.166;5.004;2024-01-11T05:59:56;103434.75;;;20.86;23.99
71384;BME280;67558;52.166;5.004;2024-01-11T06:02:21;103448.34;;;20.76;24.19
71384;BME280;67558;52.166;5.004;2024-01-11T06:04:47;103454.06;;;20.90;23.95
71384;BME280;67558;52.166;5.004;2024-01-11T06:07:14;103470.13;;;20.86;24.07
71384;BME280;67558;52.166;5.004;2024-01-11T06:09:39;103466.84;;;21.05;23.85
71384;BME280;67558;52.166;5.004;2024-01-11T06:12:05;103468.47;;;21.01;23.91
71384;BME280;67558;52.166;5.004;2024-01-11T06:14:30;103481.25;;;20.90;23.98
71384;BME280;67558;52.166;5.004;2024-01-11T06:16:55;103476.66;;;21.06;24.13
71384;BME280;67558;52.166;5.004;2024-01-11T06:19:21;103494.88;;;21.00;23.92
71384;BME280;67558;52.166;5.004;2024-01-11T06:21:46;103490.81;;;20.98;24.10
71384;BME280;67558;52.166;5.004;2024-01-11T06:24:12;103501.94;;;20.96;24.03
71384;BME280;67558;52.166;5.004;2024-01-11T06:26:37;103500.03;;;21.12;23.88
71384;BME280;67558;52.166;5.004;2024-01-11T06:29:02;103506.03;;;20.94;23.71
71384;BME280;67558;52.166;5.004;2024-01-11T06:31:28;103528.91;;;21.13;23.70
71384;BME280;67558;52.166;5.004;2024-01-11T06:33:53;103546.06;;;21.14;24.12
71384;BME280;67558;52.166;5.004;2024-01-11T06:36:18;103541.97;;;21.37;23.82
71384;BME280;67558;52.166;5.004;2024-01-11T06:38:44;103552.59;;;21.23;24.36
71384;BME280;67558;52.166;5.004;2024-01-11T06:41:09;103543.06;;;21.36;24.35
71384;BME280;67558;52.166;5.004;2024-01-11T06:43:35;103537.63;;;21.41;24.95
71384;BME280;67558;52.166;5.004;2024-01-11T06:46:04;103543.91;;;21.57;24.58
71384;BME280;67558;52.166;5.004;2024-01-11T06:48:31;103558.88;;;21.44;24.90
71384;BME280;67558;52.166;5.004;2024-01-11T06:50:57;103554.50;;;21.38;24.93
71384;BME280;67558;52.166;5.004;2024-01-11T06:53:22;103553.13;;;21.35;25.14
71384;BME280;67558;52.166;5.004;2024-01-11T06:55:48;103561.06;;;21.52;24.81
71384;BME280;67558;52.166;5.004;2024-01-11T06:58:13;103557.81;;;21.50;24.80
71384;BME280;67558;52.166;5.004;2024-01-11T07:00:38;103550.19;;;21.52;24.60
71384;BME280;67558;52.166;5.004;2024-01-11T07:03:11;103555.34;;;21.38;24.70
71384;BME280;67558;52.166;5.004;2024-01-11T07:05:37;103556.66;;;21.87;24.05
71384;BME280;67558;52.166;5.004;2024-01-11T07:08:02;103565.34;;;22.04;23.76
71384;BME280;67558;52.166;5.004;2024-01-11T07:10:29;103559.63;;;22.06;23.96
71384;BME280;67558;52.166;5.004;2024-01-11T07:12:55;103566.44;;;22.03;23.93
71384;BME280;67558;52.166;5.004;2024-01-11T07:15:21;103559.88;;;22.04;24.11
71384;BME280;67558;52.166;5.004;2024-01-11T07:17:48;103569.13;;;22.19;23.57
71384;BME280;67558;52.166;5.004;2024-01-11T07:20:15;103552.53;;;22.10;23.71
71384;BME280;67558;52.166;5.004;2024-01-11T07:22:43;103542.44;;;22.16;23.65
71384;BME280;67558;52.166;5.004;2024-01-11T07:25:11;103539.13;;;22.29;23.70
71384;BME280;67558;52.166;5.004;2024-01-11T07:27:36;103533.09;;;22.32;24.51
71384;BME280;67558;52.166;5.004;2024-01-11T07:30:02;103522.81;;;22.68;24.03
71384;BME280;67558;52.166;5.004;2024-01-11T07:32:28;103521.06;;;22.88;24.06
71384;BME280;67558;52.166;5.004;2024-01-11T07:34:54;103506.06;;;22.85;24.65
71384;BME280;67558;52.166;5.004;2024-01-11T07:37:20;103508.75;;;22.96;24.81
71384;BME280;67558;52.166;5.004;2024-01-11T07:39:46;103504.75;;;22.83;24.99
71384;BME280;67558;52.166;5.004;2024-01-11T07:42:13;103519.56;;;23.11;25.15
71384;BME280;67558;52.166;5.004;2024-01-11T07:44:39;103509.28;;;22.98;24.81
71384;BME280;67558;52.166;5.004;2024-01-11T07:47:05;103511.91;;;23.13;24.95
71384;BME280;67558;52.166;5.004;2024-01-11T07:49:32;103513.78;;;23.18;25.09
71384;BME280;67558;52.166;5.004;2024-01-11T07:51:57;103519.03;;;23.09;25.37
71384;BME280;67558;52.166;5.004;2024-01-11T07:54:23;103530.41;;;23.21;25.33
71384;BME280;67558;52.166;5.004;2024-01-11T07:56:49;103533.81;;;23.03;25.88
71384;BME280;67558;52.166;5.004;2024-01-11T07:59:15;103524.81;;;23.02;23.04
71384;BME280;67558;52.166;5.004;2024-01-11T08:01:41;103524.88;;;22.42;23.58
71384;BME280;67558;52.166;5.004;2024-01-11T08:04:07;103537.22;;;22.19;23.69
71384;BME280;67558;52.166;5.004;2024-01-11T08:06:33;103527.16;;;22.25;24.23
71384;BME280;67558;52.166;5.004;2024-01-11T08:08:59;103512.38;;;22.36;23.64
71384;BME280;67558;52.166;5.004;2024-01-11T08:11:25;103541.28;;;22.32;23.72
71384;BME280;67558;52.166;5.004;2024-01-11T08:13:50;103532.34;;;22.16;23.93
71384;BME280;67558;52.166;5.004;2024-01-11T08:16:16;103537.25;;;22.14;23.96
71384;BME280;67558;52.166;5.004;2024-01-11T08:18:43;103529.88;;;22.15;23.71
71384;BME280;67558;52.166;5.004;2024-01-11T08:21:09;103527.72;;;22.06;23.85
71384;BME280;67558;52.166;5.004;2024-01-11T08:23:37;103538.59;;;22.17;23.49
71384;BME280;67558;52.166;5.004;2024-01-11T08:26:04;103529.66;;;22.01;23.72
71384;BME280;67558;52.166;5.004;2024-01-11T08:28:30;103519.53;;;22.12;23.99
71384;BME280;67558;52.166;5.004;2024-01-11T08:30:56;103535.88;;;22.17;23.80
71384;BME280;67558;52.166;5.004;2024-01-11T08:33:22;103532.06;;;22.13;23.83
71384;BME280;67558;52.166;5.004;2024-01-11T08:35:48;103525.53;;;22.08;23.45
71384;BME280;67558;52.166;5.004;2024-01-11T08:38:14;103537.00;;;22.05;23.40
71384;BME280;67558;52.166;5.004;2024-01-11T08:40:41;103543.81;;;22.03;23.93
71384;BME280;67558;52.166;5.004;2024-01-11T08:43:07;103558.78;;;22.16;23.60
71384;BME280;67558;52.166;5.004;2024-01-11T08:45:32;103554.97;;;22.06;23.67
71384;BME280;67558;52.166;5.004;2024-01-11T08:47:58;103561.50;;;22.16;23.71
71384;BME280;67558;52.166;5.004;2024-01-11T08:50:26;103569.97;;;22.04;23.60
71384;BME280;67558;52.166;5.004;2024-01-11T08:52:51;103569.44;;;22.07;23.58
71384;BME280;67558;52.166;5.004;2024-01-11T08:55:17;103575.94;;;22.11;23.41
71384;BME280;67558;52.166;5.004;2024-01-11T08:57:43;103591.50;;;22.16;24.03
71384;BME280;67558;52.166;5.004;2024-01-11T09:00:09;103593.66;;;22.24;23.76
71384;BME280;67558;52.166;5.004;2024-01-11T09:02:35;103593.41;;;22.10;23.66
71384;BME280;67558;52.166;5.004;2024-01-11T09:05:01;103593.13;;;22.17;23.78
71384;BME280;67558;52.166;5.004;2024-01-11T09:07:28;103611.09;;;22.28;23.81
71384;BME280;67558;52.166;5.004;2024-01-11T09:09:55;103615.47;;;22.14;23.82
71384;BME280;67558;52.166;5.004;2024-01-11T09:12:21;103608.63;;;22.42;24.06
71384;BME280;67558;52.166;5.004;2024-01-11T09:14:47;103618.88;;;22.60;23.42
71384;BME280;67558;52.166;5.004;2024-01-11T09:17:12;103607.00;;;22.90;22.88
71384;BME280;67558;52.166;5.004;2024-01-11T09:19:40;103604.38;;;22.75;23.28
71384;BME280;67558;52.166;5.004;2024-01-11T09:22:06;103605.00;;;22.57;23.46
71384;BME280;67558;52.166;5.004;2024-01-11T09:24:34;103612.09;;;22.63;23.41
71384;BME280;67558;52.166;5.004;2024-01-11T09:27:01;103614.28;;;22.61;23.18
71384;BME280;67558;52.166;5.004;2024-01-11T09:29:27;103615.94;;;22.57;23.51
71384;BME280;67558;52.166;5.004;2024-01-11T09:31:53;103620.53;;;22.61;23.25
71384;BME280;67558;52.166;5.004;2024-01-11T09:34:18;103617.53;;;22.58;23.58
71384;BME280;67558;52.166;5.004;2024-01-11T09:36:44;103615.84;;;22.72;23.34
71384;BME280;67558;52.166;5.004;2024-01-11T09:39:10;103613.66;;;22.69;23.48
71384;BME280;67558;52.166;5.004;2024-01-11T09:41:41;103627.38;;;22.59;23.70
71384;BME280;67558;52.166;5.004;2024-01-11T09:44:08;103627.84;;;22.76;23.27
71384;BME280;67558;52.166;5.004;2024-01-11T09:46:34;103638.75;;;22.71;23.47
71384;BME280;67558;52.166;5.004;2024-01-11T09:49:00;103630.03;;;22.74;23.69
71384;BME280;67558;52.166;5.004;2024-01-11T09:51:29;103630.00;;;22.84;23.16
71384;BME280;67558;52.166;5.004;2024-01-11T09:53:55;103626.41;;;22.84;23.46
71384;BME280;67558;52.166;5.004;2024-01-11T09:56:24;103621.91;;;23.14;23.53
71384;BME280;67558;52.166;5.004;2024-01-11T09:58:53;103621.19;;;22.93;23.84
71384;BME280;67558;52.166;5.004;2024-01-11T10:01:19;103623.91;;;23.03;24.07
71384;BME280;67558;52.166;5.004;2024-01-11T10:03:45;103627.75;;;23.02;24.59
71384;BME280;67558;52.166;5.004;2024-01-11T10:08:41;103621.78;;;23.34;24.25
71384;BME280;67558;52.166;5.004;2024-01-11T10:11:07;103611.94;;;23.33;23.79
71384;BME280;67558;52.166;5.004;2024-01-11T10:13:32;103623.72;;;23.28;24.33
71384;BME280;67558;52.166;5.004;2024-01-11T10:18:32;103631.41;;;23.26;24.20
71384;BME280;67558;52.166;5.004;2024-01-11T10:20:57;103629.25;;;23.18;24.29
71384;BME280;67558;52.166;5.004;2024-01-11T10:23:23;103630.84;;;23.24;24.57
71384;BME280;67558;52.166;5.004;2024-01-11T10:25:49;103630.69;;;23.05;24.49
71384;BME280;67558;52.166;5.004;2024-01-11T10:28:15;103622.19;;;23.17;24.75
71384;BME280;67558;52.166;5.004;2024-01-11T10:30:45;103626.56;;;23.13;24.31
71384;BME280;67558;52.166;5.004;2024-01-11T10:33:11;103630.25;;;23.33;24.40
71384;BME280;67558;52.166;5.004;2024-01-11T10:35:37;103623.41;;;23.35;24.00
71384;BME280;67558;52.166;5.004;2024-01-11T10:38:06;103614.69;;;23.33;24.45
71384;BME280;67558;52.166;5.004;2024-01-11T10:40:34;103628.88;;;23.35;23.98
71384;BME280;67558;52.166;5.004;2024-01-11T10:43:01;103641.47;;;23.31;24.04
71384;BME280;67558;52.166;5.004;2024-01-11T10:45:27;103636.22;;;23.40;24.19
71384;BME280;67558;52.166;5.004;2024-01-11T10:48:01;103643.22;;;23.17;24.87
71384;BME280;67558;52.166;5.004;2024-01-11T10:50:30;103642.03;;;23.28;24.41
71384;BME280;67558;52.166;5.004;2024-01-11T10:53:42;103637.84;;;23.41;24.44
71384;BME280;67558;52.166;5.004;2024-01-11T10:56:09;103633.53;;;23.29;24.38
71384;BME280;67558;52.166;5.004;2024-01-11T10:58:41;103640.22;;;23.13;25.02
71384;BME280;67558;52.166;5.004;2024-01-11T11:01:08;103646.38;;;23.29;24.40
71384;BME280;67558;52.166;5.004;2024-01-11T11:03:35;103651.84;;;23.34;24.51
71384;BME280;67558;52.166;5.004;2024-01-11T11:06:02;103646.91;;;23.36;24.30
71384;BME280;67558;52.166;5.004;2024-01-11T11:08:29;103651.47;;;23.46;24.21
71384;BME280;67558;52.166;5.004;2024-01-11T11:10:55;103657.47;;;23.48;24.29
71384;BME280;67558;52.166;5.004;2024-01-11T11:13:22;103654.56;;;23.34;24.54
71384;BME280;67558;52.166;5.004;2024-01-11T11:15:48;103657.50;;;23.43;24.65
71384;BME280;67558;52.166;5.004;2024-01-11T11:18:17;103668.72;;;23.41;24.71
71384;BME280;67558;52.166;5.004;2024-01-11T11:20:43;103665.66;;;23.48;24.38
71384;BME280;67558;52.166;5.004;2024-01-11T11:23:11;103663.50;;;23.45;24.61
71384;BME280;67558;52.166;5.004;2024-01-11T11:25:39;103670.09;;;23.39;24.72
71384;BME280;67558;52.166;5.004;2024-01-11T11:28:06;103658.56;;;23.47;24.55
71384;BME280;67558;52.166;5.004;2024-01-11T11:30:41;103653.09;;;23.47;24.55
71384;BME280;67558;52.166;5.004;2024-01-11T11:33:09;103642.94;;;23.52;24.45
71384;BME280;67558;52.166;5.004;2024-01-11T11:35:35;103645.19;;;23.45;24.50
71384;BME280;67558;52.166;5.004;2024-01-11T11:38:01;103653.72;;;23.39;24.85
71384;BME280;67558;52.166;5.004;2024-01-11T11:40:38;103652.00;;;23.48;24.74
71384;BME280;67558;52.166;5.004;2024-01-11T11:43:06;103635.34;;;23.44;24.90
71384;BME280;67558;52.166;5.004;2024-01-11T11:45:32;103638.41;;;23.38;25.04
71384;BME280;67558;52.166;5.004;2024-01-11T11:47:58;103634.75;;;23.52;25.33
71384;BME280;67558;52.166;5.004;2024-01-11T11:50:24;103631.13;;;23.62;25.12
71384;BME280;67558;52.166;5.004;2024-01-11T11:52:54;103617.88;;;23.75;25.44
71384;BME280;67558;52.166;5.004;2024-01-11T11:55:25;103621.19;;;23.77;25.91
71384;BME280;67558;52.166;5.004;2024-01-11T11:57:52;103617.91;;;24.04;25.91
71384;BME280;67558;52.166;5.004;2024-01-11T12:00:21;103613.34;;;23.65;26.65
71384;BME280;67558;52.166;5.004;2024-01-11T12:02:47;103610.53;;;23.75;27.40
71384;BME280;67558;52.166;5.004;2024-01-11T12:05:16;103610.78;;;23.79;27.75
71384;BME280;67558;52.166;5.004;2024-01-11T12:07:42;103599.75;;;23.89;27.77
71384;BME280;67558;52.166;5.004;2024-01-11T12:10:08;103590.88;;;23.73;28.04
71384;BME280;67558;52.166;5.004;2024-01-11T12:12:35;103582.78;;;23.92;27.97
71384;BME280;67558;52.166;5.004;2024-01-11T12:15:04;103585.69;;;23.71;27.90
71384;BME280;67558;52.166;5.004;2024-01-11T12:17:30;103579.03;;;23.83;27.56
71384;BME280;67558;52.166;5.004;2024-01-11T12:19:56;103561.81;;;23.82;28.05
71384;BME280;67558;52.166;5.004;2024-01-11T12:22:23;103564.19;;;23.94;27.93
71384;BME280;67558;52.166;5.004;2024-01-11T12:24:48;103559.91;;;23.83;28.21
71384;BME280;67558;52.166;5.004;2024-01-11T12:27:15;103558.88;;;23.74;28.82
71384;BME280;67558;52.166;5.004;2024-01-11T12:29:42;103549.75;;;23.88;28.47
71384;BME280;67558;52.166;5.004;2024-01-11T12:32:07;103554.41;;;24.12;28.10
71384;BME280;67558;52.166;5.004;2024-01-11T12:34:37;103555.84;;;24.04;28.08
71384;BME280;67558;52.166;5.004;2024-01-11T12:37:04;103550.41;;;23.75;28.35
71384;BME280;67558;52.166;5.004;2024-01-11T12:39:31;103552.06;;;24.00;27.97
71384;BME280;67558;52.166;5.004;2024-01-11T12:41:56;103550.84;;;23.58;28.67
71384;BME280;67558;52.166;5.004;2024-01-11T12:44:26;103547.13;;;23.73;28.45
71384;BME280;67558;52.166;5.004;2024-01-11T12:46:52;103540.16;;;23.62;28.21
71384;BME280;67558;52.166;5.004;2024-01-11T12:49:18;103544.50;;;23.63;28.41